Flight Track Log - Related Links

Times and Time Zones

All times are in EDT time to prevent confusion due to time zone crossing. See the N98TA flight status page for this flight to view local times or setup timezone preferences in your user account.

Time Position Orientation Groundspeed Altitude Reporting Facility
EDT Latitude Longitude Course Direction KTS MPH feet Rate Location/Type
Mon 03:05:17 PM 26.5122 -98.6858 34° Northeast 169 194 7,100  Level Houston Center
Mon 03:06:19 PM 26.5664 -98.6761 North 185 213 8,400 1,161 Climbing Houston Center
Mon 03:07:21 PM 26.6139 -98.6619 15° North 181 208 9,500 1,012 Climbing Houston Center
Mon 03:09:00 PM 26.7118 -98.6386 20° North  Level FlightAware Approximate
Mon 03:10:28 PM 26.7575 -98.6197 20° North 178 205 12,600  Level Houston Center
Mon 03:11:00 PM 26.6953 -98.5786 34° Northeast  Level FlightAware Approximate
Mon 03:11:30 PM 26.8144 -98.6047 13° North 175 201 13,600  Level Houston Center
Mon 03:12:32 PM 26.8633 -98.5928 12° North 177 204 14,400 774 Climbing Houston Center
Mon 03:14:00 PM 26.9545 -98.5656 13° North  Level FlightAware Approximate
Mon 03:15:38 PM 27.0169 -98.5467 14° North 189 217 16,800  Level Houston Center
Mon 03:16:40 PM 27.0778 -98.5314 13° North 187 215 17,400 336 Climbing Houston Center
Mon 03:17:43 PM 27.1325 -98.5164 14° North 197 227 17,500 48 Climbing Houston Center
Mon 03:18:45 PM 27.1942 -98.5006 13° North 218 251 17,500  Level Houston Center
Mon 03:19:47 PM 27.2583 -98.4844 13° North 231 266 17,500  Level Houston Center
Mon 03:20:49 PM 27.3228 -98.4661 14° North 237 273 17,500  Level Houston Center
Mon 03:21:00 PM 27.3920 -98.4465 14° North  Level FlightAware Approximate
Mon 03:21:51 PM 27.3883 -98.4494 13° North 240 276 17,500  Level Houston Center
Mon 03:22:53 PM 27.4658 -98.4272 14° North 240 276 17,500  Level Houston Center
Mon 03:23:55 PM 27.5306 -98.4106 13° North 239 275 17,500  Level Houston Center
Mon 03:24:57 PM 27.5964 -98.3931 13° North 242 278 17,500  Level Houston Center
Mon 03:27:01 PM 27.7306 -98.3586 13° North 247 284 17,500  Level Houston Center
Mon 03:28:03 PM 27.8097 -98.3353 15° North 246 283 17,500  Level Houston Center
Mon 03:30:08 PM 27.9417 -98.3000 13° North 245 282 17,500  Level Houston Center
Mon 03:32:00 PM 28.0577 -98.2649 15° North  Level FlightAware Approximate
Mon 03:32:12 PM 28.0725 -98.2647 15° North 241 277 17,500  Level Houston Center
Mon 03:33:14 PM 28.1525 -98.2433 13° North 245 282 17,500  Level Houston Center
Mon 03:34:16 PM 28.2194 -98.2253 13° North 247 284 17,500  Level Houston Center
Mon 03:36:00 PM 28.3275 -98.1941 14° North  Level FlightAware Approximate
Mon 03:39:26 PM 28.5608 -98.1278 13° North 245 282 17,500  Level Houston Center
Mon 03:40:28 PM 28.6281 -98.1086 14° North 248 285 17,500  Level Houston Center
Mon 03:42:20 PM 28.7614 -98.0733 13° North 246 283 17,500  Level Houston Center
Mon 03:43:00 PM 28.7638 -98.0675 14° North  Level FlightAware Approximate
Mon 03:43:35 PM 28.8458 -98.0503 13° North 254 292 17,500  Level Houston Center
Mon 03:44:00 PM 28.8264 -98.0504 13° North  Level FlightAware Approximate
Mon 03:45:00 PM 28.9433 -98.0188 16° North  Level FlightAware Approximate
Mon 03:45:39 PM 28.9806 -98.0128 16° North 246 283 17,500  Level Houston Center
Mon 03:47:00 PM 29.0661 -97.9880 14° North  Level FlightAware Approximate
Mon 03:47:43 PM 29.1239 -97.9608 14° North 258 297 17,000  Level Houston Center
Mon 03:48:45 PM 29.2022 -97.9333 17° North 271 312 16,000 -882 Descending Houston Center
Mon 03:49:25 PM 29.2483 -97.9147 19° North 283 326 15,500 -857 Descending Houston Center
Mon 03:49:48 PM 29.2761 -97.9025 21° North 280 322 15,100 -1,180 Descending Houston Center
Mon 03:50:26 PM 29.3242 -97.8742 27° Northeast 283 326 14,300 -1,258 Descending Houston Center
Mon 03:50:50 PM 29.3528 -97.8603 23° Northeast 284 327 13,800 -1,180 Descending Houston Center
Mon 03:51:27 PM 29.3983 -97.8358 25° Northeast 290 334 13,100 -871 Descending Houston Center
Mon 03:51:52 PM 29.4211 -97.8233 26° Northeast 290 334 12,900 -700 Descending Houston Center
Mon 03:52:27 PM 29.4683 -97.7983 25° Northeast 285 328 12,400 -629 Descending Houston Center
Mon 03:53:56 PM 29.5569 -97.7522 24° Northeast 259 298 11,600 -1,183 Descending Houston Center
Mon 03:55:00 PM 29.6273 -97.7626 353° North  Level FlightAware Approximate
Mon 03:56:00 PM 29.7000 -97.6797 353° North 251 289 8,200  Level Houston Center
Mon 03:57:02 PM 29.7653 -97.6483 23° Northeast 252 290 7,200 -823 Descending Houston Center
Mon 03:58:04 PM 29.8331 -97.6289 14° North 235 270 6,500 -265 Descending Houston Center
Mon 04:00:00 PM 29.9642 -97.6393 354° North  Level FlightAware Approximate
Mon 04:01:11 PM 30.0272 -97.5972 354° North 228 262 6,100  Level Houston Center
Mon 04:03:00 PM 30.1422 -97.6484 339° North  Level FlightAware Approximate
Mon 04:03:15 PM 30.1481 -97.5958 339° North 231 266 3,800  Level Houston Center
Mon 04:04:17 PM 30.2147 -97.6083 351° North 212 244 2,500 -968 Descending Houston Center
Mon 04:05:19 PM 30.2539 -97.6225 343° North 173 199 1,800 -677 Descending Houston Center
Mon 04:06:21 PM 30.2358 -97.6558 238° Southwest 159 183 1,100 -677 Descending Houston Center
Mon 04:08:00 PM 30.1945 -97.6699 213° Southwest  Level Estimated
Mon 04:15:00 PM 30.1945 -97.6699 213° Southwest  Level Estimated
Mon 04:16:00 PM 30.1945 -97.6699 213° Southwest  Level Estimated
Mon 04:17:00 PM 30.1945 -97.6699 213° Southwest  Level Estimated
Mon 04:18:00 PM 30.1945 -97.6699 213° Southwest  Level Estimated
Mon 04:19:00 PM 30.1945 -97.6699 213° Southwest  Level Estimated
Mon 04:20:00 PM 30.1945 -97.6699 213° Southwest  Level Estimated
Mon 04:21:00 PM 30.1945 -97.6699 213° Southwest  Level Estimated
Mon 04:22:00 PM 30.1945 -97.6699 213° Southwest  Level Estimated

Login

Don't have an account? Register now (free) for customized features, flight alerts, and more!